Terminal Aerodrome Forecast
Issued by NWS Los Angeles, CA

Home | Current Version | Previous Version | Text Only | Print | Product List | Glossary On
Versions: 1 2 3 4 5 6 7 8 9 10 11 12 13 14 15 16 17 18 19
000
FTUS46 KLOX 292338
TAFSMX
TAF
KSMX 292338Z 3000/3024 31015G25KT P6SM SCT250
     FM300300 31010KT P6SM BKN015
     FM300800 31007KT P6SM OVC010
     FM301900 30015KT P6SM SCT200
     FM302100 31018G25KT P6SM SKC=

USA.gov is the U.S. government's official web portal to all federal, state and local government web resources and services.